createdAt,value
2019-05-19T00:01:03.686Z,24.00
2019-05-19T00:03:36.440Z,23.67
2019-05-19T00:06:09.160Z,21.47
2019-05-19T00:08:41.512Z,19.80
2019-05-19T00:11:15.874Z,17.60
2019-05-19T00:13:48.300Z,17.10
2019-05-19T00:16:20.971Z,17.20
2019-05-19T00:18:53.550Z,16.60
2019-05-19T00:21:26.117Z,16.30
2019-05-19T00:23:59.872Z,17.77
2019-05-19T00:26:32.549Z,18.03
2019-05-19T00:29:05.817Z,16.90
2019-05-19T00:31:38.231Z,16.97
2019-05-19T00:34:10.696Z,15.20
2019-05-19T00:36:43.232Z,15.77
2019-05-19T00:39:15.603Z,15.70
2019-05-19T00:41:48.277Z,16.63
2019-05-19T00:44:21.108Z,15.27
2019-05-19T00:46:55.194Z,18.83
2019-05-19T00:52:19.919Z,19.03
2019-05-19T00:54:52.345Z,42.77
2019-05-19T00:57:26.407Z,55.40
2019-05-19T01:00:01.288Z,40.10
2019-05-19T01:02:35.531Z,34.30
2019-05-19T01:05:08.514Z,25.87
2019-05-19T01:07:41.285Z,21.57
2019-05-19T01:10:14.347Z,21.33
2019-05-19T01:12:47.267Z,19.23
2019-05-19T01:15:20.549Z,19.03
2019-05-19T01:17:52.847Z,17.87
2019-05-19T01:20:25.513Z,13.87
2019-05-19T01:22:58.326Z,14.40
2019-05-19T01:25:31.298Z,14.53
2019-05-19T01:28:03.667Z,14.37
2019-05-19T01:30:37.397Z,16.17
2019-05-19T01:33:10.915Z,15.77
2019-05-19T01:35:43.231Z,16.67
2019-05-19T01:38:15.778Z,15.70
2019-05-19T01:40:48.200Z,16.43
2019-05-19T01:43:20.740Z,18.33
2019-05-19T01:45:53.145Z,16.40
2019-05-19T01:48:27.996Z,15.90
2019-05-19T01:50:59.990Z,16.80
2019-05-19T01:53:32.525Z,15.00
2019-05-19T01:56:05.256Z,15.00
2019-05-19T01:58:37.808Z,16.93
2019-05-19T02:01:10.173Z,16.00
2019-05-19T02:03:42.544Z,15.80
2019-05-19T02:06:14.983Z,17.43
2019-05-19T02:08:47.396Z,16.57
2019-05-19T02:11:20.239Z,15.67
2019-05-19T02:13:54.746Z,17.57
2019-05-19T02:16:27.230Z,18.40
2019-05-19T02:18:59.774Z,17.63
2019-05-19T02:21:32.315Z,17.80
2019-05-19T02:24:05.055Z,17.00
2019-05-19T02:26:37.956Z,16.87
2019-05-19T02:29:21.566Z,16.87
2019-05-19T02:31:54.209Z,17.13
2019-05-19T02:34:27.009Z,17.27
2019-05-19T02:36:59.665Z,16.20
2019-05-19T02:39:32.273Z,16.27
2019-05-19T02:42:06.611Z,17.33
2019-05-19T02:44:40.335Z,15.77
2019-05-19T02:47:15.415Z,16.67
2019-05-19T02:49:50.013Z,15.93
2019-05-19T02:52:23.866Z,17.50
2019-05-19T02:54:59.923Z,17.30
2019-05-19T02:57:33.758Z,17.73
2019-05-19T03:00:08.215Z,16.47
2019-05-19T03:02:40.927Z,17.70
2019-05-19T03:05:13.867Z,17.03
2019-05-19T03:07:46.684Z,17.23
2019-05-19T03:10:19.275Z,18.07
2019-05-19T03:12:51.911Z,17.83
2019-05-19T03:15:24.574Z,16.97
2019-05-19T03:17:57.181Z,16.07
2019-05-19T03:20:29.723Z,15.30
2019-05-19T03:23:02.024Z,16.80
2019-05-19T03:25:34.485Z,15.87
2019-05-19T03:28:07.012Z,15.80
2019-05-19T03:31:01.196Z,14.60
2019-05-19T03:33:35.757Z,15.43
2019-05-19T03:36:09.673Z,15.33
2019-05-19T03:38:42.590Z,16.50
2019-05-19T03:41:14.993Z,15.60
2019-05-19T03:43:47.361Z,14.83
2019-05-19T03:46:20.054Z,15.70
2019-05-19T03:48:52.733Z,15.37
2019-05-19T03:51:30.878Z,14.80
2019-05-19T03:53:59.338Z,15.13
2019-05-19T03:56:31.954Z,15.17
2019-05-19T03:59:04.463Z,16.30
2019-05-19T04:01:36.803Z,16.17
2019-05-19T04:04:09.318Z,14.17
2019-05-19T04:06:41.756Z,16.40
2019-05-19T04:09:17.376Z,15.40
2019-05-19T04:11:48.678Z,17.20
2019-05-19T04:14:21.329Z,17.27
2019-05-19T04:16:53.626Z,17.87
2019-05-19T04:19:26.327Z,15.97
2019-05-19T04:21:58.960Z,15.33
2019-05-19T04:24:31.387Z,14.83
2019-05-19T04:27:04.374Z,15.67
2019-05-19T04:29:39.531Z,16.57
2019-05-19T04:32:11.549Z,17.10
2019-05-19T04:34:44.063Z,16.43
2019-05-19T04:37:17.797Z,17.03
2019-05-19T04:39:50.688Z,16.80
2019-05-19T04:42:23.360Z,15.13
2019-05-19T04:44:55.878Z,16.77
2019-05-19T04:47:28.513Z,16.17
2019-05-19T04:50:00.876Z,16.80
2019-05-19T04:52:33.414Z,16.93
2019-05-19T04:55:05.771Z,16.57
2019-05-19T04:57:49.491Z,17.93
2019-05-19T05:00:40.791Z,15.27
2019-05-19T05:03:14.752Z,15.53
2019-05-19T05:05:47.472Z,17.30
2019-05-19T05:08:29.723Z,16.27
2019-05-19T05:10:53.930Z,14.63
2019-05-19T05:13:26.646Z,15.17
2019-05-19T05:16:00.302Z,16.20
2019-05-19T05:18:33.078Z,15.70
2019-05-19T05:21:06.207Z,15.93
2019-05-19T05:23:38.937Z,14.00
2019-05-19T05:26:12.233Z,13.47
2019-05-19T05:28:45.039Z,14.30
2019-05-19T05:31:17.629Z,14.70
2019-05-19T05:33:50.641Z,12.80
2019-05-19T05:36:23.190Z,13.17
2019-05-19T05:38:55.730Z,11.87
2019-05-19T05:41:28.659Z,11.17
2019-05-19T05:44:01.698Z,11.80
2019-05-19T05:46:35.135Z,10.63
2019-05-19T05:49:07.782Z,10.67
2019-05-19T05:51:40.391Z,10.70
2019-05-19T05:54:12.800Z,10.03
2019-05-19T05:56:45.348Z,10.27
2019-05-19T05:59:18.631Z,10.07
2019-05-19T06:01:51.452Z,10.93
2019-05-19T06:04:24.028Z,10.60
2019-05-19T06:06:56.630Z,11.37
2019-05-19T06:09:30.088Z,10.33
2019-05-19T06:12:02.909Z,10.53
2019-05-19T06:14:35.329Z,11.33
2019-05-19T06:17:07.759Z,11.50
2019-05-19T06:19:40.653Z,11.00
2019-05-19T06:22:13.166Z,10.30
2019-05-19T06:24:45.870Z,9.53
2019-05-19T06:27:18.676Z,9.00
2019-05-19T06:29:51.196Z,8.67
2019-05-19T06:32:33.076Z,8.37
2019-05-19T06:35:05.540Z,8.17
2019-05-19T06:37:38.054Z,8.35
2019-05-19T06:40:11.295Z,8.43
2019-05-19T06:42:44.768Z,8.45
2019-05-19T06:45:18.666Z,8.40
2019-05-19T06:47:51.157Z,9.07
2019-05-19T06:50:23.806Z,8.30
2019-05-19T06:53:11.217Z,8.73
2019-05-19T06:55:30.515Z,8.23
2019-05-19T06:58:03.761Z,8.53
2019-05-19T07:00:36.391Z,8.83
2019-05-19T07:03:09.120Z,9.33
2019-05-19T07:05:42.728Z,8.87
2019-05-19T07:08:15.476Z,8.27
2019-05-19T07:10:48.406Z,8.58
2019-05-19T07:13:21.105Z,7.83
2019-05-19T07:15:53.897Z,8.80
2019-05-19T07:18:28.046Z,8.40
2019-05-19T07:21:00.426Z,8.03
2019-05-19T07:23:32.878Z,9.00
2019-05-19T07:26:05.446Z,8.78
2019-05-19T07:28:38.105Z,8.50
2019-05-19T07:31:10.545Z,8.00
2019-05-19T07:33:42.847Z,8.90
2019-05-19T07:36:15.377Z,29.07
2019-05-19T07:38:48.023Z,14.63
2019-05-19T07:41:20.563Z,9.73
2019-05-19T07:43:54.907Z,8.83
2019-05-19T07:46:26.856Z,8.28
2019-05-19T07:48:59.006Z,7.75
2019-05-19T07:51:31.041Z,7.03
2019-05-19T07:54:03.135Z,7.58
2019-05-19T07:56:35.074Z,8.15
2019-05-19T07:59:08.122Z,8.10
2019-05-19T08:01:40.681Z,8.55
2019-05-19T08:04:14.105Z,8.75
2019-05-19T08:06:46.928Z,7.37
2019-05-19T08:09:19.010Z,9.58
2019-05-19T08:11:51.014Z,11.97
2019-05-19T08:14:23.469Z,17.73
2019-05-19T08:16:55.498Z,17.95
2019-05-19T08:19:27.484Z,11.45
2019-05-19T08:21:59.507Z,12.10
2019-05-19T08:24:31.538Z,9.70
2019-05-19T08:27:03.879Z,11.18
2019-05-19T08:29:35.920Z,12.03
2019-05-19T08:32:08.508Z,9.30
2019-05-19T08:34:40.606Z,11.05
2019-05-19T08:37:12.661Z,10.43
2019-05-19T08:39:45.390Z,11.15
2019-05-19T08:42:17.721Z,10.45
2019-05-19T08:44:49.832Z,11.80
2019-05-19T08:47:21.878Z,11.12
2019-05-19T08:49:53.879Z,11.73
2019-05-19T08:52:25.858Z,12.43
2019-05-19T08:54:58.076Z,20.30
2019-05-19T08:57:30.167Z,15.93
2019-05-19T09:00:02.556Z,15.83
2019-05-19T09:02:34.534Z,11.93
2019-05-19T09:05:07.235Z,12.28
2019-05-19T09:07:39.879Z,11.88
2019-05-19T09:10:14.264Z,13.13
2019-05-19T09:12:46.777Z,30.05
2019-05-19T09:15:18.889Z,15.13
2019-05-19T09:17:54.000Z,18.27
2019-05-19T09:20:24.692Z,14.43
2019-05-19T09:22:57.829Z,14.38
2019-05-19T09:25:29.893Z,18.75
2019-05-19T09:28:02.023Z,12.35
2019-05-19T09:30:34.220Z,12.28
2019-05-19T09:33:06.433Z,11.78
2019-05-19T09:35:39.692Z,11.88
2019-05-19T09:38:12.540Z,12.88
2019-05-19T09:40:44.954Z,13.10
2019-05-19T09:43:17.658Z,12.37
2019-05-19T09:45:50.242Z,12.58
2019-05-19T09:48:23.087Z,16.35
2019-05-19T09:50:55.844Z,15.23
2019-05-19T09:53:28.356Z,15.88
2019-05-19T09:56:01.043Z,14.13
2019-05-19T09:58:33.874Z,15.58
2019-05-19T10:01:06.671Z,15.13
2019-05-19T10:03:39.566Z,13.30
2019-05-19T10:06:12.203Z,13.60
2019-05-19T10:09:12.334Z,13.62
2019-05-19T10:12:05.373Z,12.90
2019-05-19T10:14:38.545Z,13.55
2019-05-19T10:17:11.307Z,13.00
2019-05-19T10:19:44.266Z,12.82
2019-05-19T10:22:17.061Z,12.80
2019-05-19T10:24:59.658Z,16.80
2019-05-19T10:27:23.925Z,23.75
2019-05-19T10:29:56.365Z,16.55
2019-05-19T10:32:28.525Z,15.48
2019-05-19T10:35:00.573Z,16.37
2019-05-19T10:37:33.592Z,23.02
2019-05-19T10:40:07.049Z,13.43
2019-05-19T10:42:41.360Z,14.85
2019-05-19T10:45:13.698Z,11.20
2019-05-19T10:47:45.688Z,22.07
2019-05-19T10:50:18.518Z,17.48
2019-05-19T10:52:50.798Z,16.57
2019-05-19T10:55:35.591Z,21.52
2019-05-19T10:57:57.752Z,20.60
2019-05-19T11:00:30.271Z,22.37
2019-05-19T11:03:03.741Z,23.95
2019-05-19T11:05:36.258Z,22.37
2019-05-19T11:08:08.800Z,22.02
2019-05-19T11:10:41.934Z,21.85
2019-05-19T11:13:14.444Z,20.95
2019-05-19T11:15:47.041Z,20.90
2019-05-19T11:18:20.392Z,17.70
2019-05-19T11:20:53.059Z,16.90
2019-05-19T11:23:25.574Z,20.37
2019-05-19T11:25:58.426Z,18.23
2019-05-19T11:28:30.723Z,15.13
2019-05-19T11:31:03.991Z,13.48
2019-05-19T11:33:35.980Z,11.95
2019-05-19T11:36:07.996Z,12.28
2019-05-19T11:38:41.858Z,10.35
2019-05-19T11:41:14.518Z,10.72
2019-05-19T11:43:47.014Z,12.65
2019-05-19T11:46:20.178Z,10.75
2019-05-19T11:48:52.583Z,11.03
2019-05-19T11:51:25.129Z,10.18
2019-05-19T11:53:57.775Z,10.18
2019-05-19T11:56:30.719Z,16.65
2019-05-19T11:59:03.063Z,11.78
2019-05-19T12:01:35.712Z,10.13
2019-05-19T12:04:09.312Z,10.43
2019-05-19T12:06:41.917Z,10.03
2019-05-19T12:09:14.583Z,11.03
2019-05-19T12:11:46.958Z,10.88
2019-05-19T12:14:19.379Z,13.30
2019-05-19T12:16:52.762Z,12.68
2019-05-19T12:19:25.501Z,14.75
2019-05-19T12:21:57.908Z,9.48
2019-05-19T12:24:30.680Z,11.50
2019-05-19T12:27:03.151Z,12.15
2019-05-19T12:29:35.455Z,13.22
2019-05-19T12:32:07.915Z,12.70
2019-05-19T12:34:39.980Z,13.38
2019-05-19T12:37:12.155Z,13.30
2019-05-19T12:39:44.818Z,13.20
2019-05-19T12:42:17.453Z,13.53
2019-05-19T12:44:50.551Z,14.38
2019-05-19T12:47:23.230Z,14.38
2019-05-19T12:49:55.955Z,12.40
2019-05-19T12:52:36.113Z,14.78
2019-05-19T12:55:09.040Z,13.55
2019-05-19T12:57:41.156Z,12.68
2019-05-19T13:00:14.721Z,12.28
2019-05-19T13:02:46.840Z,13.03
2019-05-19T13:05:18.879Z,12.20
2019-05-19T13:07:51.934Z,13.40
2019-05-19T13:10:24.701Z,14.85
2019-05-19T13:12:56.722Z,13.48
2019-05-19T13:15:28.675Z,13.70
2019-05-19T13:18:00.761Z,14.00
2019-05-19T13:20:34.448Z,13.48
2019-05-19T13:23:06.609Z,14.65
2019-05-19T13:25:38.653Z,15.08
2019-05-19T13:28:13.477Z,13.73
2019-05-19T13:30:45.558Z,14.38
2019-05-19T13:33:17.678Z,13.95
2019-05-19T13:35:49.960Z,13.35
2019-05-19T13:38:22.060Z,13.83
2019-05-19T13:40:54.195Z,15.48
2019-05-19T13:43:27.295Z,16.30
2019-05-19T13:46:00.494Z,17.62
2019-05-19T13:48:32.512Z,18.60
2019-05-19T13:51:04.492Z,15.65
2019-05-19T13:53:36.634Z,18.75
2019-05-19T13:56:08.707Z,21.05
2019-05-19T13:58:42.386Z,15.75
2019-05-19T14:01:27.679Z,16.07
2019-05-19T14:03:52.092Z,17.48
2019-05-19T14:06:23.934Z,20.37
2019-05-19T14:08:56.310Z,22.27
2019-05-19T14:11:28.283Z,22.90
2019-05-19T14:14:00.271Z,21.68
2019-05-19T14:16:32.353Z,18.07
2019-05-19T14:19:04.408Z,17.42
2019-05-19T14:21:36.860Z,12.93
2019-05-19T14:24:09.367Z,12.33
2019-05-19T14:26:41.939Z,9.20
2019-05-19T14:29:14.427Z,12.75
2019-05-19T14:31:47.179Z,14.07
2019-05-19T14:34:19.756Z,10.53
2019-05-19T14:36:52.238Z,12.60
2019-05-19T14:39:25.334Z,12.07
2019-05-19T14:42:01.492Z,13.20
2019-05-19T14:44:34.103Z,10.90
2019-05-19T14:47:06.840Z,16.57
2019-05-19T14:49:39.297Z,21.97
2019-05-19T14:52:11.854Z,26.68
2019-05-19T14:54:44.247Z,27.37
2019-05-19T14:57:16.794Z,24.47
2019-05-19T14:59:49.342Z,23.57
2019-05-19T15:02:21.998Z,17.32
2019-05-19T15:04:54.451Z,17.12
2019-05-19T15:07:26.956Z,19.10
2019-05-19T15:09:59.727Z,22.07
2019-05-19T15:12:32.438Z,19.15
2019-05-19T15:15:05.946Z,16.80
2019-05-19T15:17:38.552Z,15.50
2019-05-19T15:20:12.026Z,14.37
2019-05-19T15:22:45.078Z,16.02
2019-05-19T15:25:18.637Z,19.45
2019-05-19T15:27:59.670Z,13.43
2019-05-19T15:30:25.824Z,14.23
2019-05-19T15:32:59.584Z,15.45
2019-05-19T15:35:32.107Z,11.90
2019-05-19T15:38:04.604Z,12.15
2019-05-19T15:40:37.242Z,9.85
2019-05-19T15:43:10.073Z,9.63
2019-05-19T15:45:42.720Z,11.28
2019-05-19T15:48:15.563Z,9.37
2019-05-19T15:50:48.266Z,9.28
2019-05-19T15:53:23.092Z,9.20
2019-05-19T15:55:55.847Z,10.60
2019-05-19T15:58:28.521Z,9.38
2019-05-19T16:01:01.136Z,8.53
2019-05-19T16:03:33.836Z,8.53
2019-05-19T16:06:07.701Z,9.10
2019-05-19T16:08:41.193Z,8.60
2019-05-19T16:11:15.014Z,8.85
2019-05-19T16:13:47.502Z,8.80
2019-05-19T16:16:20.160Z,9.15
2019-05-19T16:19:05.144Z,9.43
2019-05-19T16:21:37.794Z,13.78
2019-05-19T16:24:10.350Z,10.08
2019-05-19T16:26:42.953Z,7.60
2019-05-19T16:29:15.392Z,8.05
2019-05-19T16:31:47.914Z,10.85
2019-05-19T16:34:20.579Z,8.20
2019-05-19T16:36:53.383Z,7.83
2019-05-19T16:39:26.161Z,7.83
2019-05-19T16:41:58.820Z,7.92
2019-05-19T16:44:31.565Z,8.38
2019-05-19T16:47:03.966Z,8.68
2019-05-19T16:49:36.942Z,15.33
2019-05-19T16:52:10.072Z,7.90
2019-05-19T16:54:45.321Z,8.50
2019-05-19T16:57:17.888Z,8.00
2019-05-19T16:59:50.570Z,7.67
2019-05-19T17:02:23.145Z,11.90
2019-05-19T17:04:56.175Z,9.20
2019-05-19T17:07:29.255Z,9.53
2019-05-19T17:10:01.994Z,10.25
2019-05-19T17:12:34.626Z,9.48
2019-05-19T17:15:08.230Z,8.93
2019-05-19T17:17:41.097Z,8.93
2019-05-19T17:20:14.469Z,9.33
2019-05-19T17:22:47.437Z,8.80
2019-05-19T17:25:20.223Z,9.33
2019-05-19T17:27:52.608Z,8.33
2019-05-19T17:30:25.380Z,9.38
2019-05-19T17:32:58.156Z,9.53
2019-05-19T17:35:30.543Z,8.97
2019-05-19T17:38:03.110Z,11.53
2019-05-19T17:40:36.590Z,9.63
2019-05-19T17:43:09.267Z,10.13
2019-05-19T17:45:41.737Z,14.03
2019-05-19T17:48:26.127Z,10.28
2019-05-19T17:50:51.045Z,9.53
2019-05-19T17:53:24.133Z,10.30
2019-05-19T17:55:58.599Z,10.73
2019-05-19T17:58:31.994Z,12.23
2019-05-19T18:01:04.734Z,12.88
2019-05-19T18:03:39.039Z,9.68
2019-05-19T18:06:11.735Z,9.30
2019-05-19T18:08:44.154Z,9.90
2019-05-19T18:11:16.520Z,10.20
2019-05-19T18:13:49.018Z,10.53
2019-05-19T18:16:21.535Z,10.08
2019-05-19T18:18:54.356Z,9.80
2019-05-19T18:21:27.468Z,9.27
2019-05-19T18:24:00.002Z,9.13
2019-05-19T18:26:32.679Z,8.85
2019-05-19T18:29:05.555Z,11.20
2019-05-19T18:31:38.103Z,10.27
2019-05-19T18:34:11.022Z,9.77
2019-05-19T18:36:43.736Z,13.10
2019-05-19T18:39:16.866Z,12.10
2019-05-19T18:41:49.799Z,10.43
2019-05-19T18:44:22.695Z,14.35
2019-05-19T18:46:55.790Z,10.97
2019-05-19T18:49:28.547Z,9.03
2019-05-19T18:52:01.010Z,11.00
2019-05-19T18:54:34.087Z,10.60
2019-05-19T18:57:06.949Z,12.43
2019-05-19T18:59:47.294Z,9.27
2019-05-19T19:02:14.101Z,7.37
2019-05-19T19:04:46.737Z,7.30
2019-05-19T19:07:19.141Z,5.50
2019-05-19T19:09:51.825Z,4.50
2019-05-19T19:12:24.198Z,4.37
2019-05-19T19:14:56.727Z,4.80
2019-05-19T19:17:29.410Z,4.30
2019-05-19T19:20:01.931Z,5.13
2019-05-19T19:22:34.711Z,15.80
2019-05-19T19:25:07.985Z,25.03
2019-05-19T19:27:40.513Z,8.20
2019-05-19T19:30:15.523Z,5.70
2019-05-19T19:32:47.852Z,4.87
2019-05-19T19:35:20.448Z,5.55
2019-05-19T19:37:52.979Z,5.30
2019-05-19T19:40:32.330Z,4.80
2019-05-19T19:43:05.584Z,4.80
2019-05-19T19:45:38.412Z,5.47
2019-05-19T19:48:11.010Z,4.20
2019-05-19T19:50:43.548Z,4.17
2019-05-19T19:53:15.981Z,4.17
2019-05-19T19:55:48.641Z,4.13
2019-05-19T19:58:21.450Z,4.43
2019-05-19T20:00:54.335Z,3.97
2019-05-19T20:03:27.053Z,3.90
2019-05-19T20:05:59.718Z,4.07
2019-05-19T20:08:32.504Z,3.93
2019-05-19T20:11:05.310Z,4.00
2019-05-19T20:13:37.810Z,3.53
2019-05-19T20:16:10.443Z,4.10
2019-05-19T20:18:42.927Z,4.80
2019-05-19T20:21:15.603Z,4.57
2019-05-19T20:23:48.302Z,4.60
2019-05-19T20:26:20.717Z,4.37
2019-05-19T20:28:53.318Z,4.70
2019-05-19T20:31:25.762Z,5.03
2019-05-19T20:33:59.062Z,5.00
2019-05-19T20:36:31.717Z,4.87
2019-05-19T20:39:05.292Z,5.40
2019-05-19T20:41:37.936Z,5.07
2019-05-19T20:44:10.842Z,5.10
2019-05-19T20:46:43.626Z,5.47
2019-05-19T20:49:16.528Z,5.13
2019-05-19T20:51:49.241Z,4.73
2019-05-19T20:54:22.297Z,5.03
2019-05-19T20:56:54.696Z,5.07
2019-05-19T20:59:27.074Z,5.10
2019-05-19T21:01:59.546Z,4.93
2019-05-19T21:04:32.157Z,5.03
2019-05-19T21:07:07.683Z,5.53
2019-05-19T21:09:39.116Z,5.43
2019-05-19T21:12:11.676Z,4.80
2019-05-19T21:14:44.528Z,4.77
2019-05-19T21:17:16.938Z,5.63
2019-05-19T21:19:49.542Z,5.60
2019-05-19T21:22:22.584Z,4.97
2019-05-19T21:24:55.364Z,6.63
2019-05-19T21:27:28.077Z,6.40
2019-05-19T21:30:00.694Z,6.77
2019-05-19T21:32:33.449Z,7.80
2019-05-19T21:35:06.671Z,6.80
2019-05-19T21:37:39.450Z,7.63
2019-05-19T21:40:12.349Z,6.43
2019-05-19T21:42:45.535Z,6.30
2019-05-19T21:45:18.651Z,6.03
2019-05-19T21:47:50.749Z,5.50
2019-05-19T21:50:23.362Z,6.10
2019-05-19T21:53:14.926Z,5.67
2019-05-19T21:55:49.155Z,6.30
2019-05-19T21:58:22.007Z,6.47
2019-05-19T22:00:54.763Z,7.03
2019-05-19T22:03:27.202Z,7.00
2019-05-19T22:05:59.505Z,6.57
2019-05-19T22:08:32.812Z,7.03
2019-05-19T22:11:05.395Z,7.33
2019-05-19T22:13:38.024Z,7.30
2019-05-19T22:16:29.689Z,7.20
2019-05-19T22:19:02.303Z,7.17
2019-05-19T22:21:34.699Z,7.53
2019-05-19T22:24:07.171Z,7.50
2019-05-19T22:26:39.783Z,7.40
2019-05-19T22:29:12.223Z,7.93
2019-05-19T22:31:44.568Z,7.87
2019-05-19T22:34:17.221Z,8.70
2019-05-19T22:36:49.823Z,8.50
2019-05-19T22:39:22.613Z,8.80
2019-05-19T22:41:55.167Z,8.87
2019-05-19T22:44:28.027Z,9.67
2019-05-19T22:47:00.606Z,9.40
2019-05-19T22:49:32.954Z,9.67
2019-05-19T22:52:05.496Z,9.70
2019-05-19T22:54:38.045Z,10.40
2019-05-19T22:57:10.508Z,10.27
2019-05-19T22:59:42.904Z,9.83
2019-05-19T23:02:15.521Z,10.90
2019-05-19T23:04:48.096Z,9.70
2019-05-19T23:07:20.666Z,10.53
2019-05-19T23:09:53.329Z,10.57
2019-05-19T23:12:25.974Z,10.13
2019-05-19T23:14:58.630Z,10.93
2019-05-19T23:17:31.360Z,11.00
2019-05-19T23:20:03.864Z,10.90
2019-05-19T23:22:36.533Z,11.27
2019-05-19T23:25:09.533Z,13.83
2019-05-19T23:27:42.335Z,14.37
2019-05-19T23:30:15.609Z,15.30
2019-05-19T23:32:48.583Z,14.83
2019-05-19T23:35:21.211Z,14.73
2019-05-19T23:37:53.570Z,13.73
2019-05-19T23:40:26.103Z,12.53
2019-05-19T23:42:58.543Z,13.37
2019-05-19T23:45:31.389Z,13.63
2019-05-19T23:48:04.237Z,14.13
2019-05-19T23:50:36.943Z,15.37
2019-05-19T23:53:09.501Z,16.23
2019-05-19T23:55:41.935Z,17.23
2019-05-19T23:58:14.270Z,17.57
